Time;durP1;ratioP1;P1;durP2;ratioP2;P2;SDS_P1;SDS_P2;PMS_P1;PMS_P2;Temp;Humidity;BMP_temperature;BMP_pressure;BME280_temperature;BME280_humidity;BME280_pressure;Samples;Min_cycle;Max_cycle;Signal;HPM_P1;HPM_P2
2021/10/22 00:01:39;;;;;;;2.72;0.95;;;15.70;87.90;;;;;;4210727;28;20067;-65
2021/10/22 00:04:02;;;;;;;5.72;1.50;;;15.70;87.80;;;;;;4210509;28;20052;-65
2021/10/22 00:06:24;;;;;;;4.85;1.33;;;15.70;88.50;;;;;;4194305;28;20127;-64
2021/10/22 00:08:46;;;;;;;3.55;1.42;;;15.70;87.90;;;;;;4194002;28;20052;-64
2021/10/22 00:11:18;;;;;;;5.22;1.40;;;15.70;88.20;;;;;;4203629;28;20131;-64
2021/10/22 00:13:42;;;;;;;4.05;1.42;;;15.70;87.90;;;;;;4193860;28;20135;-64
2021/10/22 00:16:05;;;;;;;1.77;1.05;;;15.70;87.40;;;;;;4182288;28;20182;-64
2021/10/22 00:18:29;;;;;;;3.78;1.70;;;15.70;88.80;;;;;;4227464;27;20044;-64
2021/10/22 00:20:51;;;;;;;4.07;1.25;;;15.70;89.50;;;;;;4227173;27;20128;-61
2021/10/22 00:23:13;;;;;;;3.03;1.17;;;15.60;89.80;;;;;;4227239;27;20071;-63
2021/10/22 00:25:35;;;;;;;2.13;1.10;;;15.60;89.30;;;;;;4209635;28;20141;-64
2021/10/22 00:27:58;;;;;;;1.63;1.13;;;15.60;89.90;;;;;;4210270;28;20051;-64
2021/10/22 00:30:22;;;;;;;1.85;0.93;;;15.60;90.30;;;;;;4210129;28;20065;-63
2021/10/22 00:32:44;;;;;;;2.42;1.42;;;15.60;90.10;;;;;;4210101;28;20079;-64
2021/10/22 00:35:07;;;;;;;2.63;1.05;;;15.60;90.20;;;;;;4219512;27;20062;-64
2021/10/22 00:37:29;;;;;;;4.75;1.38;;;15.60;90.30;;;;;;4227044;27;20048;-64
2021/10/22 00:39:52;;;;;;;4.15;1.40;;;15.60;90.20;;;;;;4226654;27;20538;-64
2021/10/22 00:42:16;;;;;;;3.95;1.15;;;15.60;90.20;;;;;;4227004;27;20478;-64
2021/10/22 00:44:39;;;;;;;2.17;0.95;;;15.60;90.00;;;;;;4219442;27;20055;-64
2021/10/22 00:47:04;;;;;;;2.65;1.00;;;15.60;90.20;;;;;;4209913;28;20071;-63
2021/10/22 00:49:26;;;;;;;5.85;1.20;;;15.60;90.00;;;;;;4210102;28;25143;-64
2021/10/22 00:51:49;;;;;;;5.15;1.27;;;15.60;89.70;;;;;;4220624;27;20515;-64
2021/10/22 00:54:11;;;;;;;4.43;1.00;;;15.60;89.30;;;;;;4223548;27;20044;-63
2021/10/22 00:56:34;;;;;;;2.80;0.98;;;15.60;89.10;;;;;;4226558;27;20035;-63
2021/10/22 00:58:58;;;;;;;4.45;1.20;;;15.60;90.00;;;;;;4226673;27;20142;-64
2021/10/22 01:01:20;;;;;;;2.97;1.27;;;15.60;88.60;;;;;;4226615;27;20042;-63
2021/10/22 01:03:43;;;;;;;2.17;1.10;;;15.60;90.20;;;;;;4226164;27;20051;-63
2021/10/22 01:06:05;;;;;;;2.75;1.08;;;15.50;89.20;;;;;;4226610;27;20069;-64
2021/10/22 01:08:29;;;;;;;5.80;1.20;;;15.50;89.10;;;;;;4225920;27;20043;-63
2021/10/22 01:10:52;;;;;;;2.65;1.10;;;15.50;89.70;;;;;;4225861;27;20512;-63
2021/10/22 01:13:14;;;;;;;2.47;0.90;;;15.50;90.00;;;;;;4226620;27;20794;-64
2021/10/22 01:15:36;;;;;;;6.45;1.13;;;15.50;89.40;;;;;;4209744;28;20044;-63
2021/10/22 01:17:59;;;;;;;6.05;1.30;;;15.50;89.70;;;;;;4209335;28;20493;-64
2021/10/22 01:20:24;;;;;;;4.32;0.90;;;15.50;89.30;;;;;;4209818;28;20135;-64
2021/10/22 01:22:50;;;;;;;2.58;1.23;;;15.50;88.80;;;;;;4216402;27;20051;-64
2021/10/22 01:25:14;;;;;;;6.35;1.58;;;15.50;89.00;;;;;;4226495;27;20047;-64
2021/10/22 01:27:36;;;;;;;6.22;1.42;;;15.50;89.60;;;;;;4226425;27;20154;-64
2021/10/22 01:29:59;;;;;;;7.07;1.73;;;15.50;89.50;;;;;;4226281;27;20051;-63
2021/10/22 01:32:21;;;;;;;5.43;2.03;;;15.50;88.60;;;;;;4192481;28;20044;-65
2021/10/22 01:34:44;;;;;;;5.10;1.52;;;15.50;88.80;;;;;;4192419;28;20079;-65
2021/10/22 01:37:06;;;;;;;4.25;1.63;;;15.50;89.00;;;;;;4192605;28;20110;-64
2021/10/22 01:39:29;;;;;;;5.18;1.17;;;15.50;89.30;;;;;;4192421;28;20048;-65
2021/10/22 01:41:51;;;;;;;5.40;1.27;;;15.50;88.30;;;;;;4221504;27;20049;-64
2021/10/22 01:44:16;;;;;;;2.72;1.02;;;15.50;89.50;;;;;;4226231;27;20056;-65
2021/10/22 01:46:38;;;;;;;4.00;1.17;;;15.40;88.50;;;;;;4225615;27;20121;-64
2021/10/22 01:49:01;;;;;;;5.05;1.48;;;15.40;86.90;;;;;;4225888;27;20054;-64
2021/10/22 01:51:23;;;;;;;5.22;1.10;;;15.40;87.80;;;;;;4223498;27;20048;-64
2021/10/22 01:53:46;;;;;;;5.47;1.38;;;15.40;88.00;;;;;;4225760;27;20073;-64
2021/10/22 01:56:10;;;;;;;3.85;1.42;;;15.40;88.50;;;;;;4225642;27;20669;-63
2021/10/22 01:58:32;;;;;;;5.70;1.20;;;15.40;88.20;;;;;;4225534;27;20177;-64
2021/10/22 02:00:58;;;;;;;5.03;1.20;;;15.40;89.40;;;;;;4224575;27;20728;-64
2021/10/22 02:03:22;;;;;;;5.90;1.48;;;15.40;89.70;;;;;;4225883;27;20050;-64
2021/10/22 02:05:45;;;;;;;4.40;1.25;;;15.40;89.90;;;;;;4224965;27;20047;-64
2021/10/22 02:08:07;;;;;;;4.13;1.10;;;15.40;89.20;;;;;;4221920;27;20489;-64
2021/10/22 02:10:30;;;;;;;4.05;1.30;;;15.40;90.10;;;;;;4208711;28;20048;-65
2021/10/22 02:12:53;;;;;;;3.50;1.38;;;15.50;90.40;;;;;;4208725;28;20047;-63
2021/10/22 02:15:15;;;;;;;4.20;1.58;;;15.60;90.20;;;;;;4208428;28;20044;-64
2021/10/22 02:17:38;;;;;;;2.28;1.23;;;15.70;90.10;;;;;;4208543;28;20052;-64
2021/10/22 02:20:00;;;;;;;2.25;1.20;;;15.80;89.70;;;;;;4198313;28;20560;-65
2021/10/22 02:22:22;;;;;;;1.92;1.10;;;15.80;89.30;;;;;;4208455;28;20498;-64
2021/10/22 02:24:44;;;;;;;6.22;1.50;;;15.90;89.20;;;;;;4208300;28;20047;-64
2021/10/22 02:27:07;;;;;;;3.90;1.65;;;15.90;90.00;;;;;;4208536;28;20048;-63
2021/10/22 02:29:31;;;;;;;4.05;1.42;;;16.00;89.00;;;;;;4222030;27;20043;-63
2021/10/22 02:31:52;;;;;;;2.50;1.25;;;16.00;88.80;;;;;;4225336;27;20054;-63
2021/10/22 02:34:15;;;;;;;4.50;1.40;;;16.00;88.10;;;;;;4224992;27;20058;-64
2021/10/22 02:36:37;;;;;;;5.40;1.20;;;16.00;88.70;;;;;;4224895;27;20047;-64
2021/10/22 02:38:59;;;;;;;5.05;1.40;;;16.00;88.50;;;;;;4211918;27;20105;-63
2021/10/22 02:41:22;;;;;;;3.42;1.10;;;16.00;88.40;;;;;;4208792;28;20059;-63
2021/10/22 02:43:44;;;;;;;4.85;1.92;;;16.00;88.40;;;;;;4208206;28;20040;-63
2021/10/22 02:46:08;;;;;;;3.28;1.65;;;16.00;88.50;;;;;;4208311;28;20055;-63
2021/10/22 02:48:30;;;;;;;5.43;1.20;;;16.00;88.40;;;;;;4207606;28;20051;-64
2021/10/22 02:50:53;;;;;;;5.03;1.50;;;16.00;88.70;;;;;;4217150;27;20065;-63
2021/10/22 02:53:15;;;;;;;6.05;1.42;;;16.10;88.10;;;;;;4224716;27;20513;-63
2021/10/22 02:55:37;;;;;;;1.98;1.02;;;16.10;88.10;;;;;;4224938;27;20755;-64
2021/10/22 02:57:59;;;;;;;3.08;1.17;;;16.10;87.90;;;;;;4218163;27;20498;-64
2021/10/22 03:00:22;;;;;;;9.02;1.63;;;16.10;87.30;;;;;;4216999;27;20054;-64
2021/10/22 03:02:46;;;;;;;5.00;1.30;;;16.20;88.00;;;;;;4224836;27;20134;-64
2021/10/22 03:05:09;;;;;;;5.07;1.65;;;16.10;87.80;;;;;;4224767;27;20481;-64
2021/10/22 03:07:31;;;;;;;2.78;1.10;;;16.20;88.00;;;;;;4222866;27;20047;-64
2021/10/22 03:09:53;;;;;;;3.85;1.38;;;16.10;87.70;;;;;;4223772;27;20104;-64
2021/10/22 03:12:15;;;;;;;2.10;1.23;;;16.10;87.60;;;;;;4223530;27;20113;-64
2021/10/22 03:14:37;;;;;;;2.72;1.35;;;16.10;87.50;;;;;;4223481;27;20109;-64
2021/10/22 03:16:59;;;;;;;4.20;1.35;;;16.20;87.60;;;;;;4223809;27;20473;-64
2021/10/22 03:19:23;;;;;;;4.43;1.50;;;16.20;87.30;;;;;;4227943;27;20048;-65
2021/10/22 03:21:45;;;;;;;5.95;2.03;;;16.20;87.50;;;;;;4227526;27;20085;-63
2021/10/22 03:24:07;;;;;;;4.35;1.33;;;16.20;87.30;;;;;;4228062;27;20126;-64
2021/10/22 03:26:29;;;;;;;2.28;1.17;;;16.20;87.70;;;;;;4227518;27;20421;-64
2021/10/22 03:28:51;;;;;;;6.63;1.73;;;16.20;87.70;;;;;;4228258;27;20131;-63
2021/10/22 03:31:13;;;;;;;5.35;1.48;;;16.20;88.10;;;;;;4194231;28;20483;-64
2021/10/22 03:33:35;;;;;;;3.17;1.20;;;16.20;87.50;;;;;;4194227;28;20509;-63
2021/10/22 03:36:00;;;;;;;5.35;1.65;;;16.20;88.40;;;;;;4198632;28;20591;-63
2021/10/22 03:38:24;;;;;;;4.15;1.25;;;16.20;87.30;;;;;;4211034;28;20040;-63
2021/10/22 03:40:46;;;;;;;6.38;1.50;;;16.20;88.00;;;;;;4210925;28;20127;-63
2021/10/22 03:43:08;;;;;;;3.55;1.17;;;16.20;87.50;;;;;;4211056;28;20055;-63
2021/10/22 03:45:30;;;;;;;4.22;1.92;;;16.20;87.60;;;;;;4210850;28;20108;-64
2021/10/22 03:47:52;;;;;;;4.57;1.60;;;16.20;87.60;;;;;;4211403;28;20044;-63
2021/10/22 03:50:17;;;;;;;4.53;1.90;;;16.20;87.60;;;;;;4211079;28;20595;-62
2021/10/22 03:52:40;;;;;;;3.88;1.45;;;16.20;87.30;;;;;;4210604;28;20052;-62
2021/10/22 03:55:02;;;;;;;2.90;1.27;;;16.20;87.30;;;;;;4209640;28;20067;-62
2021/10/22 03:57:25;;;;;;;5.10;2.08;;;16.20;88.40;;;;;;4227368;27;20122;-62
2021/10/22 03:59:47;;;;;;;3.72;1.10;;;16.10;88.60;;;;;;4225786;27;20517;-63
2021/10/22 04:02:10;;;;;;;7.80;2.25;;;16.10;87.30;;;;;;4227797;27;20046;-63
2021/10/22 04:04:32;;;;;;;5.07;1.45;;;16.10;87.40;;;;;;4227389;27;20063;-63
2021/10/22 04:06:54;;;;;;;3.85;1.40;;;16.10;87.40;;;;;;4226676;27;20044;-62
2021/10/22 04:09:17;;;;;;;6.20;1.85;;;16.10;87.50;;;;;;4227529;27;20036;-63
2021/10/22 04:11:40;;;;;;;5.75;1.45;;;16.10;87.50;;;;;;4218758;27;20039;-62
2021/10/22 04:14:02;;;;;;;7.55;1.77;;;16.10;87.70;;;;;;4222806;27;20665;-62
2021/10/22 04:16:24;;;;;;;3.53;1.30;;;16.20;87.50;;;;;;4227465;27;20080;-63
2021/10/22 04:18:46;;;;;;;4.80;1.60;;;16.20;86.40;;;;;;4227109;27;20043;-63
2021/10/22 04:21:08;;;;;;;5.15;1.60;;;16.20;86.60;;;;;;4227431;27;20052;-63
2021/10/22 04:23:31;;;;;;;7.80;1.45;;;16.20;85.90;;;;;;4224927;27;20500;-62
2021/10/22 04:25:54;;;;;;;7.40;2.17;;;16.20;86.70;;;;;;4227241;27;20564;-64
2021/10/22 04:28:16;;;;;;;7.45;1.83;;;16.20;86.20;;;;;;4226819;27;20067;-63
2021/10/22 04:30:40;;;;;;;7.10;1.55;;;16.20;86.10;;;;;;4223055;27;20055;-64
2021/10/22 04:33:02;;;;;;;6.13;1.70;;;16.20;85.90;;;;;;4208898;28;20055;-64
2021/10/22 04:35:24;;;;;;;2.95;1.10;;;16.20;85.70;;;;;;4210402;28;20055;-63
2021/10/22 04:38:02;;;;;;;4.28;1.70;;;16.20;86.40;;;;;;4210248;28;20478;-63
2021/10/22 04:40:30;;;;;;;4.50;1.40;;;16.10;86.20;;;;;;4208598;28;20093;-63
2021/10/22 04:42:54;;;;;;;2.65;1.13;;;16.10;86.90;;;;;;4193529;28;20170;-63
2021/10/22 04:45:18;;;;;;;2.80;1.35;;;16.20;87.10;;;;;;4193431;28;20055;-63
2021/10/22 04:47:41;;;;;;;2.65;1.10;;;16.20;86.90;;;;;;4193260;28;20406;-63
2021/10/22 04:50:06;;;;;;;3.95;1.20;;;16.30;87.00;;;;;;4195280;28;20040;-63
2021/10/22 04:52:28;;;;;;;2.78;1.27;;;16.30;86.80;;;;;;4193369;28;20044;-64
2021/10/22 04:54:50;;;;;;;2.97;1.55;;;16.30;87.00;;;;;;4193265;28;20044;-64
2021/10/22 04:57:12;;;;;;;4.20;1.42;;;16.30;86.70;;;;;;4193064;28;20457;-63
2021/10/22 04:59:35;;;;;;;4.95;1.50;;;16.30;86.70;;;;;;4193178;28;20052;-63
2021/10/22 05:01:57;;;;;;;3.03;1.30;;;16.30;86.50;;;;;;4208206;28;20044;-62
2021/10/22 05:04:19;;;;;;;5.20;1.70;;;16.20;86.80;;;;;;4209610;28;20052;-63
2021/10/22 05:06:42;;;;;;;5.95;1.75;;;16.20;87.10;;;;;;4209759;28;20050;-63
2021/10/22 05:09:04;;;;;;;7.68;2.20;;;16.20;86.90;;;;;;4208399;28;20055;-63
2021/10/22 05:11:26;;;;;;;6.60;1.73;;;16.20;87.00;;;;;;4209107;28;20088;-63
2021/10/22 05:13:49;;;;;;;5.43;1.85;;;16.20;87.10;;;;;;4209634;28;20040;-63
2021/10/22 05:16:12;;;;;;;6.65;1.50;;;16.10;86.80;;;;;;4208982;28;20047;-63
2021/10/22 05:18:34;;;;;;;7.55;1.95;;;16.10;87.10;;;;;;4209335;28;20048;-63
2021/10/22 05:20:56;;;;;;;6.15;2.00;;;16.10;87.30;;;;;;4209241;28;20510;-62
2021/10/22 05:23:18;;;;;;;8.02;2.20;;;16.10;87.10;;;;;;4226257;27;20131;-62
2021/10/22 05:25:40;;;;;;;6.65;1.50;;;16.10;87.20;;;;;;4226263;27;20109;-62
2021/10/22 05:28:03;;;;;;;2.63;1.38;;;16.00;87.70;;;;;;4226172;27;20067;-63
2021/10/22 05:30:26;;;;;;;5.53;1.60;;;16.00;87.80;;;;;;4218868;27;20047;-62
2021/10/22 05:32:49;;;;;;;3.08;1.40;;;16.00;87.90;;;;;;4209363;28;20063;-63
2021/10/22 05:35:11;;;;;;;6.00;1.67;;;16.00;87.60;;;;;;4208937;28;20055;-62
2021/10/22 05:37:34;;;;;;;5.25;1.92;;;16.10;87.50;;;;;;4209327;28;20581;-62
2021/10/22 05:39:57;;;;;;;6.95;2.10;;;16.00;87.60;;;;;;4207848;28;20060;-63
2021/10/22 05:42:19;;;;;;;4.55;1.38;;;16.10;87.40;;;;;;4225965;27;20584;-63
2021/10/22 05:44:41;;;;;;;3.83;1.35;;;16.10;86.80;;;;;;4226015;27;20044;-63
2021/10/22 05:47:04;;;;;;;6.68;2.05;;;16.10;86.80;;;;;;4225718;27;20044;-64
2021/10/22 05:49:28;;;;;;;4.32;1.20;;;16.10;85.70;;;;;;4224461;27;20108;-63
2021/10/22 05:51:52;;;;;;;7.07;1.35;;;16.20;85.00;;;;;;4209049;28;20081;-62
2021/10/22 05:54:14;;;;;;;3.38;1.60;;;16.10;85.60;;;;;;4208595;28;20052;-64
2021/10/22 05:56:36;;;;;;;3.10;1.25;;;16.10;85.80;;;;;;4208780;28;20486;-63
2021/10/22 05:58:58;;;;;;;5.38;1.27;;;16.20;85.90;;;;;;4212752;27;20430;-63
2021/10/22 06:01:20;;;;;;;3.30;1.38;;;16.10;86.60;;;;;;4208466;28;20050;-61
2021/10/22 06:03:48;;;;;;;5.50;1.45;;;16.20;86.50;;;;;;4208626;28;20066;-62
2021/10/22 06:06:12;;;;;;;4.22;1.20;;;16.20;85.50;;;;;;4208831;28;20048;-62
2021/10/22 06:08:37;;;;;;;3.05;1.15;;;16.20;86.40;;;;;;4199668;28;20181;-61
2021/10/22 06:10:59;;;;;;;6.68;2.10;;;16.20;86.30;;;;;;4205816;28;20055;-61
2021/10/22 06:13:21;;;;;;;4.28;1.67;;;16.10;86.40;;;;;;4205362;28;22303;-61
2021/10/22 06:15:44;;;;;;;2.80;1.10;;;16.10;86.20;;;;;;4207553;28;20051;-62
2021/10/22 06:18:08;;;;;;;5.38;1.42;;;16.10;86.30;;;;;;4199873;28;20494;-61
2021/10/22 06:20:41;;;;;;;4.20;1.45;;;16.10;86.60;;;;;;4197752;28;20101;-61
2021/10/22 06:25:47;;;;;;;5.63;1.40;;;16.00;86.40;;;;;;4195833;27;20444;-62
2021/10/22 06:28:12;;;;;;;3.88;1.13;;;16.00;87.10;;;;;;4223797;27;20044;-62
2021/10/22 06:30:37;;;;;;;4.82;1.10;;;16.10;86.90;;;;;;4188825;28;20048;-62
2021/10/22 06:33:02;;;;;;;3.70;1.20;;;16.40;86.50;;;;;;4205671;28;20079;-61
2021/10/22 06:35:25;;;;;;;8.93;1.42;;;16.60;85.40;;;;;;4198157;28;20101;-62
2021/10/22 06:37:48;;;;;;;3.72;1.38;;;16.80;84.50;;;;;;4209630;28;20521;-62
2021/10/22 06:40:14;;;;;;;3.20;1.30;;;17.00;83.70;;;;;;4194119;28;20048;-61
2021/10/22 06:42:38;;;;;;;7.53;1.45;;;17.20;82.10;;;;;;4199722;28;20059;-62
2021/10/22 06:45:02;;;;;;;4.45;1.63;;;17.50;81.60;;;;;;4201398;28;20048;-61
2021/10/22 06:47:26;;;;;;;4.55;1.77;;;17.70;80.40;;;;;;4202236;28;20044;-61
2021/10/22 06:49:49;;;;;;;6.10;1.40;;;17.90;79.80;;;;;;4201059;28;20079;-61
2021/10/22 06:52:12;;;;;;;3.97;1.23;;;18.00;79.40;;;;;;4195587;28;20094;-61
2021/10/22 06:54:36;;;;;;;5.78;2.03;;;18.00;79.20;;;;;;4191772;28;20384;-59
2021/10/22 06:57:03;;;;;;;7.18;1.27;;;18.00;79.00;;;;;;4196501;28;20177;-61
2021/10/22 06:59:27;;;;;;;4.20;1.77;;;18.10;78.80;;;;;;4198401;28;20048;-60
2021/10/22 07:01:50;;;;;;;2.92;1.02;;;18.10;78.80;;;;;;4202931;28;20406;-62
2021/10/22 07:04:13;;;;;;;4.50;1.85;;;18.20;78.50;;;;;;4205369;28;20550;-62
2021/10/22 07:09:16;;;;;;;6.55;1.75;;;18.10;78.40;;;;;;4204442;28;20160;-62
2021/10/22 07:11:39;;;;;;;5.07;1.63;;;18.10;78.60;;;;;;4203910;28;20060;-62
2021/10/22 07:14:06;;;;;;;6.68;1.38;;;18.10;78.80;;;;;;4189119;28;20195;-62
2021/10/22 07:16:30;;;;;;;7.15;2.13;;;18.10;78.70;;;;;;4202428;28;20052;-63
2021/10/22 07:18:56;;;;;;;4.78;1.50;;;18.20;78.70;;;;;;4200111;28;20498;-62
2021/10/22 07:21:21;;;;;;;3.90;1.27;;;18.30;78.50;;;;;;4189899;28;20051;-62
2021/10/22 07:23:47;;;;;;;4.03;1.20;;;18.30;78.30;;;;;;4201277;28;20055;-64
2021/10/22 07:26:10;;;;;;;6.07;1.20;;;18.30;79.30;;;;;;4200855;28;20071;-63
2021/10/22 07:28:33;;;;;;;4.20;1.35;;;18.30;78.90;;;;;;4199373;28;20059;-63
2021/10/22 07:30:59;;;;;;;4.00;1.48;;;18.10;79.80;;;;;;4195316;28;20058;-62
2021/10/22 07:33:22;;;;;;;4.85;1.65;;;18.00;79.20;;;;;;4195136;28;20055;-63
2021/10/22 07:35:45;;;;;;;5.03;1.67;;;17.90;79.70;;;;;;4200358;28;20063;-63
2021/10/22 07:38:11;;;;;;;8.32;2.00;;;17.90;80.60;;;;;;4200790;28;20040;-63
2021/10/22 07:40:35;;;;;;;6.18;1.60;;;17.80;81.30;;;;;;4200229;28;20044;-62
2021/10/22 07:42:59;;;;;;;9.20;1.92;;;17.70;81.70;;;;;;4197414;28;20473;-63
2021/10/22 07:45:21;;;;;;;5.82;1.70;;;17.70;81.60;;;;;;4200443;28;20075;-61
2021/10/22 07:47:51;;;;;;;4.80;1.98;;;17.70;81.90;;;;;;4204589;28;20052;-62
2021/10/22 07:50:13;;;;;;;10.13;2.83;;;17.70;81.40;;;;;;4204054;28;20051;-62
2021/10/22 07:52:37;;;;;;;6.50;1.67;;;17.60;81.80;;;;;;4201128;28;20047;-61
2021/10/22 07:55:00;;;;;;;4.38;2.17;;;17.60;82.30;;;;;;4204598;28;20125;-62
2021/10/22 07:57:24;;;;;;;6.35;2.08;;;17.50;81.80;;;;;;4199556;28;20387;-61
2021/10/22 07:59:50;;;;;;;4.80;1.48;;;17.50;82.10;;;;;;4192419;28;20052;-61
2021/10/22 08:02:15;;;;;;;4.32;1.42;;;17.40;82.30;;;;;;4202291;28;20048;-63
2021/10/22 08:04:39;;;;;;;4.68;1.92;;;17.50;82.60;;;;;;4209424;28;20056;-62
2021/10/22 08:07:02;;;;;;;4.10;0.90;;;17.50;81.90;;;;;;4206423;28;20121;-62
2021/10/22 08:09:25;;;;;;;4.82;1.65;;;17.60;82.20;;;;;;4209018;28;20150;-62
2021/10/22 08:11:51;;;;;;;2.75;1.35;;;17.50;81.90;;;;;;4200652;28;20577;-61
2021/10/22 08:14:16;;;;;;;4.25;1.67;;;17.60;81.80;;;;;;4194690;28;20401;-61
2021/10/22 08:16:42;;;;;;;3.15;1.20;;;17.60;81.80;;;;;;4196490;28;20138;-62
2021/10/22 08:19:06;;;;;;;3.35;1.10;;;17.60;81.80;;;;;;4201384;28;20484;-62
2021/10/22 08:21:56;;;;;;;3.65;1.20;;;17.50;81.70;;;;;;4197991;28;20067;-61
2021/10/22 08:24:19;;;;;;;6.05;1.70;;;17.50;81.80;;;;;;4201855;28;20165;-62
2021/10/22 08:26:43;;;;;;;3.15;1.20;;;17.40;82.40;;;;;;4205564;28;20048;-62
2021/10/22 08:29:16;;;;;;;5.50;1.27;;;17.30;82.20;;;;;;4205698;28;20431;-62
2021/10/22 08:31:38;;;;;;;4.43;1.45;;;17.30;83.40;;;;;;4206163;28;20051;-62
2021/10/22 08:34:02;;;;;;;2.75;1.42;;;17.20;82.90;;;;;;4201547;28;20130;-61
2021/10/22 08:36:25;;;;;;;4.25;1.73;;;17.20;83.10;;;;;;4203301;28;20078;-62
2021/10/22 08:38:50;;;;;;;3.65;1.17;;;17.30;82.90;;;;;;4202887;28;20494;-62
2021/10/22 08:41:15;;;;;;;4.93;1.15;;;17.30;83.20;;;;;;4205932;28;20043;-62
2021/10/22 08:43:38;;;;;;;4.45;1.83;;;17.30;82.80;;;;;;4208756;28;20079;-62
2021/10/22 08:46:00;;;;;;;3.55;1.40;;;17.30;83.30;;;;;;4204538;28;20051;-63
2021/10/22 08:48:23;;;;;;;4.82;1.00;;;17.30;83.60;;;;;;4208765;28;20105;-63
2021/10/22 08:50:46;;;;;;;4.55;1.30;;;17.30;83.20;;;;;;4202886;28;20048;-60
2021/10/22 08:53:11;;;;;;;6.47;1.08;;;17.30;83.50;;;;;;4195310;28;20059;-61
2021/10/22 08:55:39;;;;;;;5.47;1.60;;;17.40;83.70;;;;;;4185241;28;20063;-61
2021/10/22 08:58:03;;;;;;;2.95;1.92;;;17.30;82.70;;;;;;4194884;28;20043;-61
2021/10/22 09:00:27;;;;;;;6.43;2.08;;;17.30;82.80;;;;;;4206570;28;20047;-61
2021/10/22 09:02:50;;;;;;;3.63;1.60;;;17.40;83.00;;;;;;4201465;28;20063;-61
2021/10/22 09:05:19;;;;;;;3.35;1.60;;;17.40;82.50;;;;;;4203442;28;20478;-61
2021/10/22 09:07:44;;;;;;;2.40;1.30;;;17.40;82.40;;;;;;4201351;28;20055;-61
2021/10/22 09:10:09;;;;;;;3.47;1.23;;;17.40;82.40;;;;;;4207340;28;20043;-59
2021/10/22 09:12:50;;;;;;;6.68;2.10;;;17.40;82.30;;;;;;4200890;28;20052;-60
2021/10/22 09:15:14;;;;;;;3.38;1.35;;;17.50;82.40;;;;;;4202207;28;20074;-62
2021/10/22 09:17:40;;;;;;;7.10;2.10;;;17.60;82.40;;;;;;4201029;28;20105;-62
2021/10/22 09:20:04;;;;;;;5.75;1.45;;;17.60;81.80;;;;;;4198356;28;20098;-62
2021/10/22 09:22:30;;;;;;;5.43;1.95;;;17.60;81.80;;;;;;4204664;28;20099;-60
2021/10/22 09:24:56;;;;;;;6.38;1.80;;;17.60;81.70;;;;;;4204135;28;20044;-61
2021/10/22 09:27:41;;;;;;;5.43;1.98;;;17.60;81.80;;;;;;4205628;28;20656;-61
2021/10/22 09:30:11;;;;;;;9.02;1.90;;;17.60;81.50;;;;;;4202049;28;20052;-62
2021/10/22 09:32:43;;;;;;;3.38;2.03;;;17.60;81.80;;;;;;4198383;28;20047;-61
2021/10/22 09:35:09;;;;;;;5.95;1.85;;;17.50;81.40;;;;;;4201064;28;20051;-61
2021/10/22 09:37:40;;;;;;;5.68;1.52;;;17.50;80.70;;;;;;4205290;28;20044;-62
2021/10/22 09:40:04;;;;;;;5.75;2.50;;;17.50;80.40;;;;;;4202519;28;20051;-62
2021/10/22 09:42:28;;;;;;;5.50;1.92;;;17.50;82.20;;;;;;4204605;28;20032;-62
2021/10/22 09:44:52;;;;;;;4.47;1.70;;;17.50;81.30;;;;;;4202966;28;20409;-61
2021/10/22 09:47:18;;;;;;;4.80;1.33;;;17.50;82.00;;;;;;4204693;28;20490;-62
2021/10/22 09:49:44;;;;;;;4.55;1.20;;;17.40;81.90;;;;;;4202272;28;20052;-61
2021/10/22 09:52:14;;;;;;;5.85;1.70;;;17.40;81.70;;;;;;4197849;28;20105;-61
2021/10/22 09:54:39;;;;;;;4.22;1.40;;;17.30;81.60;;;;;;4192111;28;20130;-62
2021/10/22 09:57:07;;;;;;;4.28;1.67;;;17.30;80.80;;;;;;4202181;28;20052;-61
2021/10/22 09:59:29;;;;;;;4.65;1.42;;;17.30;81.90;;;;;;4203362;28;20075;-62
2021/10/22 10:01:58;;;;;;;5.43;1.42;;;17.20;82.40;;;;;;4202227;28;20079;-61
2021/10/22 10:04:24;;;;;;;4.68;1.48;;;17.20;82.40;;;;;;4202511;28;20054;-61
2021/10/22 10:07:00;;;;;;;7.22;1.67;;;17.20;82.10;;;;;;4202186;28;20044;-62
2021/10/22 10:09:27;;;;;;;3.30;1.25;;;17.20;82.40;;;;;;4192887;27;20063;-62
2021/10/22 10:11:53;;;;;;;5.05;1.65;;;17.20;82.40;;;;;;4213698;27;20055;-63
2021/10/22 10:14:18;;;;;;;4.70;1.38;;;17.20;82.90;;;;;;4200438;28;20055;-61
2021/10/22 10:16:42;;;;;;;4.15;1.65;;;17.10;82.20;;;;;;4200808;28;20055;-65
2021/10/22 10:19:08;;;;;;;3.90;1.50;;;17.10;82.90;;;;;;4201588;28;20044;-62
2021/10/22 10:21:42;;;;;;;4.95;1.15;;;17.10;83.20;;;;;;4196465;28;20052;-63
2021/10/22 10:24:07;;;;;;;3.70;1.25;;;17.00;84.10;;;;;;4197137;28;20066;-64
2021/10/22 10:26:33;;;;;;;4.20;1.50;;;17.00;83.90;;;;;;4198046;28;20048;-62
2021/10/22 10:29:00;;;;;;;2.15;1.40;;;17.00;83.70;;;;;;4204212;28;20040;-60
2021/10/22 10:31:37;;;;;;;5.20;1.70;;;17.00;83.80;;;;;;4195914;28;20123;-61
2021/10/22 10:34:24;;;;;;;3.85;1.90;;;17.10;83.50;;;;;;4191991;28;20077;-60
2021/10/22 10:36:54;;;;;;;4.55;1.40;;;17.00;83.70;;;;;;4198112;28;20138;-61
2021/10/22 10:39:53;;;;;;;5.10;1.48;;;17.00;83.50;;;;;;4197711;28;20055;-61
2021/10/22 10:42:18;;;;;;;3.17;1.30;;;17.00;83.20;;;;;;4199577;28;20295;-62
2021/10/22 10:44:43;;;;;;;8.82;2.72;;;17.00;84.20;;;;;;4200195;28;20452;-61
2021/10/22 10:47:42;;;;;;;4.65;1.98;;;17.00;83.60;;;;;;4200716;28;20044;-60
2021/10/22 10:50:07;;;;;;;3.63;1.60;;;17.00;83.20;;;;;;4197236;28;20066;-61
2021/10/22 10:52:50;;;;;;;3.70;1.35;;;17.00;84.30;;;;;;4197854;28;20043;-61
2021/10/22 10:55:23;;;;;;;6.45;1.45;;;17.00;83.70;;;;;;4196494;28;20071;-58
2021/10/22 10:57:49;;;;;;;5.47;2.13;;;17.00;83.40;;;;;;4203352;28;20071;-59
2021/10/22 11:00:14;;;;;;;9.60;2.15;;;17.00;83.60;;;;;;4199746;28;20056;-60
2021/10/22 11:03:13;;;;;;;6.47;2.05;;;17.00;84.00;;;;;;4198555;28;20048;-61
2021/10/22 11:06:06;;;;;;;7.35;1.77;;;17.00;83.30;;;;;;4198352;28;20048;-60
2021/10/22 11:08:57;;;;;;;4.72;1.30;;;16.90;80.50;;;;;;4177648;27;20055;-60
2021/10/22 11:11:33;;;;;;;4.85;1.80;;;16.90;80.00;;;;;;4193290;28;20406;-62
2021/10/22 11:14:18;;;;;;;3.75;0.93;;;16.80;82.80;;;;;;4191833;28;20045;-61
2021/10/22 11:16:45;;;;;;;4.82;1.55;;;16.80;81.40;;;;;;4199206;28;20121;-61
2021/10/22 11:19:08;;;;;;;2.60;1.55;;;16.80;82.20;;;;;;4202594;28;20052;-61
2021/10/22 11:21:33;;;;;;;3.40;1.23;;;16.90;83.50;;;;;;4201055;28;20528;-61
2021/10/22 11:23:57;;;;;;;2.88;1.23;;;17.00;83.10;;;;;;4206757;28;20055;-61
2021/10/22 11:26:21;;;;;;;3.90;1.20;;;17.10;82.40;;;;;;4204349;28;20093;-62
2021/10/22 11:28:45;;;;;;;5.00;1.25;;;17.10;81.70;;;;;;4201183;28;20044;-63
2021/10/22 11:31:08;;;;;;;4.75;1.70;;;17.10;83.00;;;;;;4198480;28;20067;-59
2021/10/22 11:33:35;;;;;;;4.15;1.27;;;17.10;82.80;;;;;;4186737;28;20414;-62
2021/10/22 11:36:20;;;;;;;;;;;;;;;;;;;;;
2021/10/22 11:39:54;;;;;;;6.97;1.58;;;17.10;82.10;;;;;;4106590;28;20280;-61
2021/10/22 11:42:32;;;;;;;6.50;1.30;;;17.10;83.50;;;;;;4085532;28;20061;-60
2021/10/22 11:45:01;;;;;;;5.47;1.77;;;17.10;83.80;;;;;;4106657;28;20073;-61
2021/10/22 11:47:37;;;;;;;6.03;1.70;;;17.00;83.40;;;;;;4137735;28;20463;-61
2021/10/22 11:50:21;;;;;;;5.47;1.63;;;17.00;82.90;;;;;;4141156;28;20060;-61
2021/10/22 11:52:57;;;;;;;11.55;2.40;;;16.90;82.60;;;;;;4145951;28;20045;-60
2021/10/22 11:55:42;;;;;;;5.32;1.70;;;16.90;83.30;;;;;;4110689;28;20053;-60
2021/10/22 11:58:35;;;;;;;6.57;2.15;;;16.90;82.40;;;;;;4196190;28;20040;-60
2021/10/22 12:00:59;;;;;;;7.00;2.00;;;16.90;82.50;;;;;;4204852;28;20051;-59
2021/10/22 12:03:27;;;;;;;4.45;1.67;;;16.80;83.30;;;;;;4203664;28;21598;-59
2021/10/22 12:05:49;;;;;;;4.95;1.90;;;16.80;83.20;;;;;;4207836;28;20051;-59
2021/10/22 12:08:30;;;;;;;5.25;1.42;;;16.80;82.90;;;;;;4196368;28;20055;-60
2021/10/22 12:11:34;;;;;;;3.17;1.15;;;16.80;82.60;;;;;;4196794;28;20196;-59
2021/10/22 12:13:58;;;;;;;5.18;1.30;;;16.70;83.80;;;;;;4190522;28;20044;-60
2021/10/22 12:16:22;;;;;;;5.28;1.42;;;16.60;84.90;;;;;;4207740;28;20641;-60
2021/10/22 12:18:44;;;;;;;5.03;1.90;;;16.60;83.90;;;;;;4209144;28;20052;-60
2021/10/22 12:21:09;;;;;;;6.15;1.73;;;16.60;84.80;;;;;;4205984;28;20505;-60
2021/10/22 12:23:31;;;;;;;4.03;1.35;;;16.60;85.30;;;;;;4209414;28;20123;-60
2021/10/22 12:25:53;;;;;;;7.15;2.10;;;16.60;85.10;;;;;;4208388;28;20054;-61
2021/10/22 12:28:17;;;;;;;5.10;1.35;;;16.60;85.70;;;;;;4207061;28;20131;-61
2021/10/22 12:30:41;;;;;;;7.10;2.00;;;16.50;84.40;;;;;;4202152;28;20072;-62
2021/10/22 12:33:10;;;;;;;2.67;1.27;;;16.50;85.20;;;;;;4204705;28;20075;-60
2021/10/22 12:35:36;;;;;;;4.65;1.65;;;16.50;85.80;;;;;;4206371;28;20075;-60
2021/10/22 12:38:05;;;;;;;5.90;1.40;;;16.50;86.20;;;;;;4209319;28;20047;-60
2021/10/22 12:40:29;;;;;;;4.50;1.77;;;16.60;86.00;;;;;;4207748;28;20135;-58
2021/10/22 12:43:19;;;;;;;2.90;1.35;;;16.70;84.00;;;;;;4207590;28;20178;-61
2021/10/22 12:45:50;;;;;;;4.65;1.70;;;16.70;81.50;;;;;;4204385;28;20055;-61